sensor_id;sensor_type;location;lat;lon;timestamp;temperature;humidity
34135;DHT22;20410;55.578;12.968;2022-11-11T00:01:13;13.10;99.90
34135;DHT22;20410;55.578;12.968;2022-11-11T00:03:39;13.10;99.90
34135;DHT22;20410;55.578;12.968;2022-11-11T00:06:11;13.10;99.90
34135;DHT22;20410;55.578;12.968;2022-11-11T00:08:37;13.10;99.90
34135;DHT22;20410;55.578;12.968;2022-11-11T00:11:08;13.00;99.90
34135;DHT22;20410;55.578;12.968;2022-11-11T00:13:35;13.00;99.90
34135;DHT22;20410;55.578;12.968;2022-11-11T00:16:05;13.10;99.90
34135;DHT22;20410;55.578;12.968;2022-11-11T00:18:31;13.00;99.90
34135;DHT22;20410;55.578;12.968;2022-11-11T00:21:15;13.00;99.90
34135;DHT22;20410;55.578;12.968;2022-11-11T00:24:00;13.00;99.90
34135;DHT22;20410;55.578;12.968;2022-11-11T00:26:44;13.00;99.90
34135;DHT22;20410;55.578;12.968;2022-11-11T00:29:10;13.00;99.90
34135;DHT22;20410;55.578;12.968;2022-11-11T00:31:35;13.10;99.90
34135;DHT22;20410;55.578;12.968;2022-11-11T00:34:21;13.10;99.90
34135;DHT22;20410;55.578;12.968;2022-11-11T00:36:46;13.10;99.90
34135;DHT22;20410;55.578;12.968;2022-11-11T00:39:12;13.10;99.90
34135;DHT22;20410;55.578;12.968;2022-11-11T00:41:37;13.10;99.90
34135;DHT22;20410;55.578;12.968;2022-11-11T00:44:03;13.10;99.90
34135;DHT22;20410;55.578;12.968;2022-11-11T00:46:29;13.10;99.90
34135;DHT22;20410;55.578;12.968;2022-11-11T00:49:13;13.10;99.90
34135;DHT22;20410;55.578;12.968;2022-11-11T00:51:57;13.00;99.90
34135;DHT22;20410;55.578;12.968;2022-11-11T00:54:22;13.10;99.90
34135;DHT22;20410;55.578;12.968;2022-11-11T00:56:48;13.10;99.90
34135;DHT22;20410;55.578;12.968;2022-11-11T00:59:13;13.10;99.90
34135;DHT22;20410;55.578;12.968;2022-11-11T01:01:39;13.10;99.90
34135;DHT22;20410;55.578;12.968;2022-11-11T01:04:05;13.10;99.90
34135;DHT22;20410;55.578;12.968;2022-11-11T01:06:30;13.00;99.90
34135;DHT22;20410;55.578;12.968;2022-11-11T01:08:56;13.10;99.90
34135;DHT22;20410;55.578;12.968;2022-11-11T01:11:23;13.10;99.90
34135;DHT22;20410;55.578;12.968;2022-11-11T01:13:49;13.00;99.90
34135;DHT22;20410;55.578;12.968;2022-11-11T01:16:18;13.10;99.90
34135;DHT22;20410;55.578;12.968;2022-11-11T01:18:44;13.00;99.90
34135;DHT22;20410;55.578;12.968;2022-11-11T01:23:38;13.00;99.90
34135;DHT22;20410;55.578;12.968;2022-11-11T01:26:10;13.00;99.90
34135;DHT22;20410;55.578;12.968;2022-11-11T01:28:36;13.00;99.90
34135;DHT22;20410;55.578;12.968;2022-11-11T01:31:07;13.00;99.90
34135;DHT22;20410;55.578;12.968;2022-11-11T01:33:33;13.00;99.90
34135;DHT22;20410;55.578;12.968;2022-11-11T01:38:29;13.00;99.90
34135;DHT22;20410;55.578;12.968;2022-11-11T01:40:54;13.00;99.90
34135;DHT22;20410;55.578;12.968;2022-11-11T01:43:22;13.00;99.90
34135;DHT22;20410;55.578;12.968;2022-11-11T01:46:00;13.00;99.90
34135;DHT22;20410;55.578;12.968;2022-11-11T01:48:34;13.10;99.90
34135;DHT22;20410;55.578;12.968;2022-11-11T01:51:35;13.10;99.90
34135;DHT22;20410;55.578;12.968;2022-11-11T01:54:05;13.10;99.90
34135;DHT22;20410;55.578;12.968;2022-11-11T01:56:31;13.10;99.90
34135;DHT22;20410;55.578;12.968;2022-11-11T01:59:01;13.10;99.90
34135;DHT22;20410;55.578;12.968;2022-11-11T02:01:27;13.10;99.90
34135;DHT22;20410;55.578;12.968;2022-11-11T02:03:54;13.20;99.90
34135;DHT22;20410;55.578;12.968;2022-11-11T02:06:39;13.20;99.90
34135;DHT22;20410;55.578;12.968;2022-11-11T02:09:07;13.20;99.90
34135;DHT22;20410;55.578;12.968;2022-11-11T02:11:34;13.20;99.90
34135;DHT22;20410;55.578;12.968;2022-11-11T02:14:19;13.20;99.90
34135;DHT22;20410;55.578;12.968;2022-11-11T02:17:06;13.20;99.90
34135;DHT22;20410;55.578;12.968;2022-11-11T02:24:49;13.20;99.90
34135;DHT22;20410;55.578;12.968;2022-11-11T02:27:18;13.30;99.90
34135;DHT22;20410;55.578;12.968;2022-11-11T02:29:46;13.30;99.90
34135;DHT22;20410;55.578;12.968;2022-11-11T02:32:13;13.30;99.90
34135;DHT22;20410;55.578;12.968;2022-11-11T02:34:38;13.30;99.90
34135;DHT22;20410;55.578;12.968;2022-11-11T02:37:07;13.30;99.90
34135;DHT22;20410;55.578;12.968;2022-11-11T02:39:34;13.30;99.90
34135;DHT22;20410;55.578;12.968;2022-11-11T02:42:02;13.40;99.90
34135;DHT22;20410;55.578;12.968;2022-11-11T02:44:34;13.40;99.90
34135;DHT22;20410;55.578;12.968;2022-11-11T02:47:00;13.30;99.90
34135;DHT22;20410;55.578;12.968;2022-11-11T02:49:26;13.40;99.90
34135;DHT22;20410;55.578;12.968;2022-11-11T02:51:51;13.40;99.90
34135;DHT22;20410;55.578;12.968;2022-11-11T02:54:17;13.40;99.90
34135;DHT22;20410;55.578;12.968;2022-11-11T02:56:42;13.40;99.90
34135;DHT22;20410;55.578;12.968;2022-11-11T02:59:26;13.40;99.90
34135;DHT22;20410;55.578;12.968;2022-11-11T03:01:52;13.40;99.90
34135;DHT22;20410;55.578;12.968;2022-11-11T03:04:17;13.40;99.90
34135;DHT22;20410;55.578;12.968;2022-11-11T03:06:43;13.40;99.90
34135;DHT22;20410;55.578;12.968;2022-11-11T03:09:08;13.40;99.90
34135;DHT22;20410;55.578;12.968;2022-11-11T03:11:34;13.40;99.90
34135;DHT22;20410;55.578;12.968;2022-11-11T03:14:03;13.40;99.90
34135;DHT22;20410;55.578;12.968;2022-11-11T03:16:29;13.40;99.90
34135;DHT22;20410;55.578;12.968;2022-11-11T03:19:13;13.40;99.90
34135;DHT22;20410;55.578;12.968;2022-11-11T03:21:39;13.40;99.90
34135;DHT22;20410;55.578;12.968;2022-11-11T03:24:05;13.50;99.90
34135;DHT22;20410;55.578;12.968;2022-11-11T03:26:30;13.50;99.90
34135;DHT22;20410;55.578;12.968;2022-11-11T03:28:56;13.50;99.90
34135;DHT22;20410;55.578;12.968;2022-11-11T03:31:22;13.50;99.90
34135;DHT22;20410;55.578;12.968;2022-11-11T03:33:47;13.50;99.90
34135;DHT22;20410;55.578;12.968;2022-11-11T03:36:13;13.50;99.90
34135;DHT22;20410;55.578;12.968;2022-11-11T03:38:38;13.50;99.90
34135;DHT22;20410;55.578;12.968;2022-11-11T03:41:04;13.50;99.90
34135;DHT22;20410;55.578;12.968;2022-11-11T03:43:32;13.50;99.90
34135;DHT22;20410;55.578;12.968;2022-11-11T03:45:59;13.50;99.90
34135;DHT22;20410;55.578;12.968;2022-11-11T03:48:27;13.50;99.90
34135;DHT22;20410;55.578;12.968;2022-11-11T03:50:53;13.50;99.90
34135;DHT22;20410;55.578;12.968;2022-11-11T03:53:19;13.60;99.90
34135;DHT22;20410;55.578;12.968;2022-11-11T03:55:46;13.60;99.90
34135;DHT22;20410;55.578;12.968;2022-11-11T03:58:12;13.60;99.90
34135;DHT22;20410;55.578;12.968;2022-11-11T04:00:38;13.60;99.90
34135;DHT22;20410;55.578;12.968;2022-11-11T04:03:06;13.60;99.90
34135;DHT22;20410;55.578;12.968;2022-11-11T04:05:52;13.60;99.90
34135;DHT22;20410;55.578;12.968;2022-11-11T04:08:36;13.60;99.90
34135;DHT22;20410;55.578;12.968;2022-11-11T04:11:28;13.70;99.90
34135;DHT22;20410;55.578;12.968;2022-11-11T04:13:58;13.70;99.90
34135;DHT22;20410;55.578;12.968;2022-11-11T04:16:44;13.70;99.90
34135;DHT22;20410;55.578;12.968;2022-11-11T04:19:09;13.70;99.90
34135;DHT22;20410;55.578;12.968;2022-11-11T04:21:54;13.70;99.90
34135;DHT22;20410;55.578;12.968;2022-11-11T04:24:20;13.70;99.90
34135;DHT22;20410;55.578;12.968;2022-11-11T04:27:07;13.70;99.90
34135;DHT22;20410;55.578;12.968;2022-11-11T04:29:33;13.70;99.90
34135;DHT22;20410;55.578;12.968;2022-11-11T04:32:00;13.70;99.90
34135;DHT22;20410;55.578;12.968;2022-11-11T04:34:49;13.70;99.90
34135;DHT22;20410;55.578;12.968;2022-11-11T04:37:15;13.70;99.90
34135;DHT22;20410;55.578;12.968;2022-11-11T04:39:41;13.60;99.90
34135;DHT22;20410;55.578;12.968;2022-11-11T04:42:26;13.60;99.90
34135;DHT22;20410;55.578;12.968;2022-11-11T04:44:53;13.60;99.90
34135;DHT22;20410;55.578;12.968;2022-11-11T04:47:37;13.60;99.90
34135;DHT22;20410;55.578;12.968;2022-11-11T04:50:04;13.60;99.90
34135;DHT22;20410;55.578;12.968;2022-11-11T04:52:30;13.60;99.90
34135;DHT22;20410;55.578;12.968;2022-11-11T04:54:57;13.60;99.90
34135;DHT22;20410;55.578;12.968;2022-11-11T04:57:43;13.60;99.90
34135;DHT22;20410;55.578;12.968;2022-11-11T05:00:11;13.60;99.90
34135;DHT22;20410;55.578;12.968;2022-11-11T05:02:37;13.60;99.90
34135;DHT22;20410;55.578;12.968;2022-11-11T05:05:22;13.60;99.90
34135;DHT22;20410;55.578;12.968;2022-11-11T05:07:48;13.60;99.90
34135;DHT22;20410;55.578;12.968;2022-11-11T05:10:33;13.60;99.90
34135;DHT22;20410;55.578;12.968;2022-11-11T05:12:59;13.60;99.90
34135;DHT22;20410;55.578;12.968;2022-11-11T05:15:44;13.60;99.90
34135;DHT22;20410;55.578;12.968;2022-11-11T05:18:28;13.50;99.90
34135;DHT22;20410;55.578;12.968;2022-11-11T05:21:18;13.50;99.90
34135;DHT22;20410;55.578;12.968;2022-11-11T05:23:48;13.50;99.90
34135;DHT22;20410;55.578;12.968;2022-11-11T05:26:32;13.50;99.90
34135;DHT22;20410;55.578;12.968;2022-11-11T05:28:58;13.50;99.90
34135;DHT22;20410;55.578;12.968;2022-11-11T05:31:24;13.50;99.90
34135;DHT22;20410;55.578;12.968;2022-11-11T05:33:49;13.50;99.90
34135;DHT22;20410;55.578;12.968;2022-11-11T05:36:15;13.40;99.90
34135;DHT22;20410;55.578;12.968;2022-11-11T05:38:42;13.40;99.90
34135;DHT22;20410;55.578;12.968;2022-11-11T05:41:08;13.40;99.90
34135;DHT22;20410;55.578;12.968;2022-11-11T05:43:33;13.40;99.90
34135;DHT22;20410;55.578;12.968;2022-11-11T05:45:59;13.40;99.90
34135;DHT22;20410;55.578;12.968;2022-11-11T05:48:25;13.40;99.90
34135;DHT22;20410;55.578;12.968;2022-11-11T05:50:50;13.40;99.90
34135;DHT22;20410;55.578;12.968;2022-11-11T05:53:16;13.40;99.90
34135;DHT22;20410;55.578;12.968;2022-11-11T05:55:41;13.40;99.90
34135;DHT22;20410;55.578;12.968;2022-11-11T05:58:07;13.40;99.90
34135;DHT22;20410;55.578;12.968;2022-11-11T06:00:32;13.30;99.90
34135;DHT22;20410;55.578;12.968;2022-11-11T06:03:04;13.30;99.90
34135;DHT22;20410;55.578;12.968;2022-11-11T06:05:30;13.30;99.90
34135;DHT22;20410;55.578;12.968;2022-11-11T06:07:56;13.30;99.90
34135;DHT22;20410;55.578;12.968;2022-11-11T06:10:21;13.30;99.90
34135;DHT22;20410;55.578;12.968;2022-11-11T06:12:59;13.30;99.90
34135;DHT22;20410;55.578;12.968;2022-11-11T06:15:35;13.30;99.90
34135;DHT22;20410;55.578;12.968;2022-11-11T06:18:04;13.30;99.90
34135;DHT22;20410;55.578;12.968;2022-11-11T06:20:31;13.40;99.90
34135;DHT22;20410;55.578;12.968;2022-11-11T06:23:00;13.40;99.90
34135;DHT22;20410;55.578;12.968;2022-11-11T06:25:27;13.40;99.90
34135;DHT22;20410;55.578;12.968;2022-11-11T06:28:12;13.40;99.90
34135;DHT22;20410;55.578;12.968;2022-11-11T06:30:38;13.50;99.90
34135;DHT22;20410;55.578;12.968;2022-11-11T06:33:03;13.50;99.90
34135;DHT22;20410;55.578;12.968;2022-11-11T06:35:35;13.60;99.90
34135;DHT22;20410;55.578;12.968;2022-11-11T06:38:01;13.60;99.90
34135;DHT22;20410;55.578;12.968;2022-11-11T06:40:27;13.60;99.90
34135;DHT22;20410;55.578;12.968;2022-11-11T06:42:53;13.60;99.90
34135;DHT22;20410;55.578;12.968;2022-11-11T06:45:19;13.60;99.90
34135;DHT22;20410;55.578;12.968;2022-11-11T06:47:44;13.60;99.90
34135;DHT22;20410;55.578;12.968;2022-11-11T06:50:10;13.50;99.90
34135;DHT22;20410;55.578;12.968;2022-11-11T06:52:35;13.50;99.90
34135;DHT22;20410;55.578;12.968;2022-11-11T06:55:01;13.50;99.90
34135;DHT22;20410;55.578;12.968;2022-11-11T06:57:26;13.50;99.90
34135;DHT22;20410;55.578;12.968;2022-11-11T06:59:52;13.40;99.90
34135;DHT22;20410;55.578;12.968;2022-11-11T07:02:17;13.40;99.90
34135;DHT22;20410;55.578;12.968;2022-11-11T07:04:43;13.40;99.90
34135;DHT22;20410;55.578;12.968;2022-11-11T07:07:09;13.50;99.90
34135;DHT22;20410;55.578;12.968;2022-11-11T07:09:34;13.50;99.90
34135;DHT22;20410;55.578;12.968;2022-11-11T07:12:00;13.50;99.90
34135;DHT22;20410;55.578;12.968;2022-11-11T07:14:26;13.50;99.90
34135;DHT22;20410;55.578;12.968;2022-11-11T07:16:51;13.50;99.90
34135;DHT22;20410;55.578;12.968;2022-11-11T07:19:17;13.50;99.90
34135;DHT22;20410;55.578;12.968;2022-11-11T07:21:42;13.50;99.90
34135;DHT22;20410;55.578;12.968;2022-11-11T07:24:08;13.50;99.90
34135;DHT22;20410;55.578;12.968;2022-11-11T07:26:34;13.50;99.90
34135;DHT22;20410;55.578;12.968;2022-11-11T07:28:59;13.50;99.90
34135;DHT22;20410;55.578;12.968;2022-11-11T07:31:25;13.50;99.90
34135;DHT22;20410;55.578;12.968;2022-11-11T07:33:50;13.50;99.90
34135;DHT22;20410;55.578;12.968;2022-11-11T07:36:16;13.50;99.90
34135;DHT22;20410;55.578;12.968;2022-11-11T07:38:41;13.50;99.90
34135;DHT22;20410;55.578;12.968;2022-11-11T07:41:07;13.50;99.90
34135;DHT22;20410;55.578;12.968;2022-11-11T07:43:32;13.50;99.90
34135;DHT22;20410;55.578;12.968;2022-11-11T07:45:58;13.50;99.90
34135;DHT22;20410;55.578;12.968;2022-11-11T07:48:23;13.50;99.90
34135;DHT22;20410;55.578;12.968;2022-11-11T07:50:51;13.50;99.90
34135;DHT22;20410;55.578;12.968;2022-11-11T07:53:17;13.50;99.90
34135;DHT22;20410;55.578;12.968;2022-11-11T07:55:44;13.50;99.90
34135;DHT22;20410;55.578;12.968;2022-11-11T07:58:11;13.50;99.90
34135;DHT22;20410;55.578;12.968;2022-11-11T08:00:36;13.50;99.90
34135;DHT22;20410;55.578;12.968;2022-11-11T08:03:02;13.50;99.90
34135;DHT22;20410;55.578;12.968;2022-11-11T08:05:27;13.40;99.90
34135;DHT22;20410;55.578;12.968;2022-11-11T08:07:53;13.40;99.90
34135;DHT22;20410;55.578;12.968;2022-11-11T08:10:18;13.50;99.90
34135;DHT22;20410;55.578;12.968;2022-11-11T08:12:44;13.50;99.90
34135;DHT22;20410;55.578;12.968;2022-11-11T08:15:28;13.50;99.90
34135;DHT22;20410;55.578;12.968;2022-11-11T08:17:54;13.50;99.90
34135;DHT22;20410;55.578;12.968;2022-11-11T08:20:19;13.50;99.90
34135;DHT22;20410;55.578;12.968;2022-11-11T08:22:45;13.50;99.90
34135;DHT22;20410;55.578;12.968;2022-11-11T08:25:11;13.50;99.90
34135;DHT22;20410;55.578;12.968;2022-11-11T08:27:40;13.60;99.90
34135;DHT22;20410;55.578;12.968;2022-11-11T08:30:07;13.60;99.90
34135;DHT22;20410;55.578;12.968;2022-11-11T08:32:32;13.60;99.90
34135;DHT22;20410;55.578;12.968;2022-11-11T08:34:58;13.60;99.90
34135;DHT22;20410;55.578;12.968;2022-11-11T08:37:24;13.60;99.90
34135;DHT22;20410;55.578;12.968;2022-11-11T08:39:49;13.60;99.90
34135;DHT22;20410;55.578;12.968;2022-11-11T08:42:17;13.60;99.90
34135;DHT22;20410;55.578;12.968;2022-11-11T08:44:42;13.70;99.90
34135;DHT22;20410;55.578;12.968;2022-11-11T08:47:08;13.70;99.90
34135;DHT22;20410;55.578;12.968;2022-11-11T08:49:34;13.70;99.90
34135;DHT22;20410;55.578;12.968;2022-11-11T08:51:59;13.70;99.90
34135;DHT22;20410;55.578;12.968;2022-11-11T08:54:25;13.70;99.90
34135;DHT22;20410;55.578;12.968;2022-11-11T08:56:50;13.70;99.90
34135;DHT22;20410;55.578;12.968;2022-11-11T08:59:16;13.80;99.90
34135;DHT22;20410;55.578;12.968;2022-11-11T09:01:41;13.80;99.90
34135;DHT22;20410;55.578;12.968;2022-11-11T09:04:07;13.80;99.90
34135;DHT22;20410;55.578;12.968;2022-11-11T09:06:33;13.80;99.90
34135;DHT22;20410;55.578;12.968;2022-11-11T09:08:58;13.80;99.90
34135;DHT22;20410;55.578;12.968;2022-11-11T09:11:24;13.80;99.90
34135;DHT22;20410;55.578;12.968;2022-11-11T09:13:49;13.80;99.90
34135;DHT22;20410;55.578;12.968;2022-11-11T09:16:15;13.80;99.90
34135;DHT22;20410;55.578;12.968;2022-11-11T09:18:40;13.80;99.90
34135;DHT22;20410;55.578;12.968;2022-11-11T09:21:06;13.80;99.90
34135;DHT22;20410;55.578;12.968;2022-11-11T09:23:32;13.80;99.90
34135;DHT22;20410;55.578;12.968;2022-11-11T09:26:00;13.80;99.90
34135;DHT22;20410;55.578;12.968;2022-11-11T09:28:29;13.90;99.90
34135;DHT22;20410;55.578;12.968;2022-11-11T09:30:58;13.90;99.90
34135;DHT22;20410;55.578;12.968;2022-11-11T09:33:23;13.90;99.90
34135;DHT22;20410;55.578;12.968;2022-11-11T09:35:49;13.90;99.90
34135;DHT22;20410;55.578;12.968;2022-11-11T09:38:14;13.90;99.90
34135;DHT22;20410;55.578;12.968;2022-11-11T09:43:55;13.90;99.90
34135;DHT22;20410;55.578;12.968;2022-11-11T09:46:45;13.90;99.90
34135;DHT22;20410;55.578;12.968;2022-11-11T09:49:50;14.00;99.90
34135;DHT22;20410;55.578;12.968;2022-11-11T09:52:36;13.90;99.90
34135;DHT22;20410;55.578;12.968;2022-11-11T09:55:19;13.90;99.90
34135;DHT22;20410;55.578;12.968;2022-11-11T09:57:59;14.00;99.90
34135;DHT22;20410;55.578;12.968;2022-11-11T10:00:28;14.00;99.90
34135;DHT22;20410;55.578;12.968;2022-11-11T10:02:59;14.00;99.90
34135;DHT22;20410;55.578;12.968;2022-11-11T10:05:36;14.00;99.90
34135;DHT22;20410;55.578;12.968;2022-11-11T10:08:14;14.00;99.90
34135;DHT22;20410;55.578;12.968;2022-11-11T10:10:52;14.10;99.90
34135;DHT22;20410;55.578;12.968;2022-11-11T10:13:36;14.10;99.90
34135;DHT22;20410;55.578;12.968;2022-11-11T10:21:52;14.10;99.90
34135;DHT22;20410;55.578;12.968;2022-11-11T10:24:45;14.00;99.90
34135;DHT22;20410;55.578;12.968;2022-11-11T10:27:17;14.00;99.90
34135;DHT22;20410;55.578;12.968;2022-11-11T10:29:44;14.00;99.90
34135;DHT22;20410;55.578;12.968;2022-11-11T10:32:22;14.10;99.90
34135;DHT22;20410;55.578;12.968;2022-11-11T10:34:50;14.10;99.90
34135;DHT22;20410;55.578;12.968;2022-11-11T10:37:35;14.10;99.90
34135;DHT22;20410;55.578;12.968;2022-11-11T10:42:41;14.20;99.90
34135;DHT22;20410;55.578;12.968;2022-11-11T10:45:26;14.20;99.90
34135;DHT22;20410;55.578;12.968;2022-11-11T10:48:19;14.20;99.90
34135;DHT22;20410;55.578;12.968;2022-11-11T10:50:53;14.20;99.90
34135;DHT22;20410;55.578;12.968;2022-11-11T10:53:36;14.20;99.90
34135;DHT22;20410;55.578;12.968;2022-11-11T10:56:33;14.30;99.90
34135;DHT22;20410;55.578;12.968;2022-11-11T10:59:36;14.30;99.90
34135;DHT22;20410;55.578;12.968;2022-11-11T11:02:05;14.30;99.90
34135;DHT22;20410;55.578;12.968;2022-11-11T11:04:49;14.40;99.90
34135;DHT22;20410;55.578;12.968;2022-11-11T11:07:23;14.50;99.90
34135;DHT22;20410;55.578;12.968;2022-11-11T11:09:56;14.50;99.90
34135;DHT22;20410;55.578;12.968;2022-11-11T11:12:27;14.50;99.90
34135;DHT22;20410;55.578;12.968;2022-11-11T11:14:58;14.50;99.90
34135;DHT22;20410;55.578;12.968;2022-11-11T11:17:36;14.50;99.90
34135;DHT22;20410;55.578;12.968;2022-11-11T11:22:56;14.50;99.90
34135;DHT22;20410;55.578;12.968;2022-11-11T11:25:25;14.40;99.90
34135;DHT22;20410;55.578;12.968;2022-11-11T11:27:51;14.40;99.90
34135;DHT22;20410;55.578;12.968;2022-11-11T11:30:24;14.40;99.90
34135;DHT22;20410;55.578;12.968;2022-11-11T11:32:58;14.40;99.90
34135;DHT22;20410;55.578;12.968;2022-11-11T11:37:58;14.40;99.90
34135;DHT22;20410;55.578;12.968;2022-11-11T11:40:23;14.30;99.90
34135;DHT22;20410;55.578;12.968;2022-11-11T11:42:49;14.30;99.90
34135;DHT22;20410;55.578;12.968;2022-11-11T11:45:27;14.20;99.90
34135;DHT22;20410;55.578;12.968;2022-11-11T11:53:20;14.30;99.90
34135;DHT22;20410;55.578;12.968;2022-11-11T11:56:24;14.30;99.90
34135;DHT22;20410;55.578;12.968;2022-11-11T12:15:03;14.30;99.90
34135;DHT22;20410;55.578;12.968;2022-11-11T12:17:53;14.30;99.90
34135;DHT22;20410;55.578;12.968;2022-11-11T12:33:45;14.30;99.90
34135;DHT22;20410;55.578;12.968;2022-11-11T12:36:35;14.20;99.90
34135;DHT22;20410;55.578;12.968;2022-11-11T12:39:20;14.30;99.90
34135;DHT22;20410;55.578;12.968;2022-11-11T12:42:23;14.30;99.90
34135;DHT22;20410;55.578;12.968;2022-11-11T12:44:59;14.30;99.90
34135;DHT22;20410;55.578;12.968;2022-11-11T13:01:32;14.30;99.90
34135;DHT22;20410;55.578;12.968;2022-11-11T13:12:20;14.30;99.90
34135;DHT22;20410;55.578;12.968;2022-11-11T13:17:31;14.30;99.90
34135;DHT22;20410;55.578;12.968;2022-11-11T13:22:48;14.30;99.90
34135;DHT22;20410;55.578;12.968;2022-11-11T13:25:25;14.30;99.90
34135;DHT22;20410;55.578;12.968;2022-11-11T13:27:59;14.30;99.90
34135;DHT22;20410;55.578;12.968;2022-11-11T13:30:45;14.30;99.90
34135;DHT22;20410;55.578;12.968;2022-11-11T13:33:17;14.30;99.90
34135;DHT22;20410;55.578;12.968;2022-11-11T13:38:32;14.30;99.90
34135;DHT22;20410;55.578;12.968;2022-11-11T13:41:01;14.30;99.90
34135;DHT22;20410;55.578;12.968;2022-11-11T13:43:32;14.30;99.90
34135;DHT22;20410;55.578;12.968;2022-11-11T13:46:01;14.30;99.90
34135;DHT22;20410;55.578;12.968;2022-11-11T13:48:28;14.30;99.90
34135;DHT22;20410;55.578;12.968;2022-11-11T13:53:36;14.30;99.90
34135;DHT22;20410;55.578;12.968;2022-11-11T13:56:03;14.30;99.90
34135;DHT22;20410;55.578;12.968;2022-11-11T13:58:38;14.30;99.90
34135;DHT22;20410;55.578;12.968;2022-11-11T14:01:08;14.30;99.90
34135;DHT22;20410;55.578;12.968;2022-11-11T14:17:00;14.30;99.90
34135;DHT22;20410;55.578;12.968;2022-11-11T14:19:29;14.30;99.90
34135;DHT22;20410;55.578;12.968;2022-11-11T14:22:02;14.30;99.90
34135;DHT22;20410;55.578;12.968;2022-11-11T14:24:43;14.30;99.90
34135;DHT22;20410;55.578;12.968;2022-11-11T14:29:55;14.30;99.90
34135;DHT22;20410;55.578;12.968;2022-11-11T14:40:39;14.30;99.90
34135;DHT22;20410;55.578;12.968;2022-11-11T14:46:07;14.30;99.90
34135;DHT22;20410;55.578;12.968;2022-11-11T14:51:39;14.30;99.90
34135;DHT22;20410;55.578;12.968;2022-11-11T14:54:27;14.30;99.90
34135;DHT22;20410;55.578;12.968;2022-11-11T14:57:02;14.30;99.90
34135;DHT22;20410;55.578;12.968;2022-11-11T14:59:30;14.20;99.90
34135;DHT22;20410;55.578;12.968;2022-11-11T15:01:57;14.20;99.90
34135;DHT22;20410;55.578;12.968;2022-11-11T15:04:25;14.20;99.90
34135;DHT22;20410;55.578;12.968;2022-11-11T15:06:59;14.20;99.90
34135;DHT22;20410;55.578;12.968;2022-11-11T15:15:02;14.20;99.90
34135;DHT22;20410;55.578;12.968;2022-11-11T15:25:55;14.20;99.90
34135;DHT22;20410;55.578;12.968;2022-11-11T15:29:01;14.20;99.90
34135;DHT22;20410;55.578;12.968;2022-11-11T15:34:45;14.20;99.90
34135;DHT22;20410;55.578;12.968;2022-11-11T15:37:15;14.20;99.90
34135;DHT22;20410;55.578;12.968;2022-11-11T15:39:48;14.20;99.90
34135;DHT22;20410;55.578;12.968;2022-11-11T15:42:36;14.20;99.90
34135;DHT22;20410;55.578;12.968;2022-11-11T15:45:19;14.20;99.90
34135;DHT22;20410;55.578;12.968;2022-11-11T15:47:46;14.20;99.90
34135;DHT22;20410;55.578;12.968;2022-11-11T15:52:55;14.30;99.90
34135;DHT22;20410;55.578;12.968;2022-11-11T15:55:24;14.30;99.90
34135;DHT22;20410;55.578;12.968;2022-11-11T15:57:50;14.30;99.90
34135;DHT22;20410;55.578;12.968;2022-11-11T16:00:29;14.30;99.90
34135;DHT22;20410;55.578;12.968;2022-11-11T16:02:55;14.30;99.90
34135;DHT22;20410;55.578;12.968;2022-11-11T16:05:26;14.30;99.90
34135;DHT22;20410;55.578;12.968;2022-11-11T16:07:55;14.30;99.90
34135;DHT22;20410;55.578;12.968;2022-11-11T16:10:31;14.30;99.90
34135;DHT22;20410;55.578;12.968;2022-11-11T16:13:03;14.30;99.90
34135;DHT22;20410;55.578;12.968;2022-11-11T16:18:26;14.20;99.90
34135;DHT22;20410;55.578;12.968;2022-11-11T16:21:00;14.20;99.90
34135;DHT22;20410;55.578;12.968;2022-11-11T16:23:27;14.20;99.90
34135;DHT22;20410;55.578;12.968;2022-11-11T16:25:54;14.20;99.90
34135;DHT22;20410;55.578;12.968;2022-11-11T16:28:22;14.20;99.90
34135;DHT22;20410;55.578;12.968;2022-11-11T16:30:48;14.20;99.90
34135;DHT22;20410;55.578;12.968;2022-11-11T16:35:51;14.20;99.90
34135;DHT22;20410;55.578;12.968;2022-11-11T16:38:32;14.20;99.90
34135;DHT22;20410;55.578;12.968;2022-11-11T16:40:58;14.20;99.90
34135;DHT22;20410;55.578;12.968;2022-11-11T16:43:25;14.20;99.90
34135;DHT22;20410;55.578;12.968;2022-11-11T16:48:37;14.20;99.90
34135;DHT22;20410;55.578;12.968;2022-11-11T16:51:24;14.20;99.90
34135;DHT22;20410;55.578;12.968;2022-11-11T16:54:09;14.20;99.90
34135;DHT22;20410;55.578;12.968;2022-11-11T16:56:42;14.20;99.90
34135;DHT22;20410;55.578;12.968;2022-11-11T16:59:13;14.20;99.90
34135;DHT22;20410;55.578;12.968;2022-11-11T17:01:44;14.20;99.90
34135;DHT22;20410;55.578;12.968;2022-11-11T17:04:11;14.20;99.90
34135;DHT22;20410;55.578;12.968;2022-11-11T17:06:53;14.20;99.90
34135;DHT22;20410;55.578;12.968;2022-11-11T17:09:36;14.30;99.90
34135;DHT22;20410;55.578;12.968;2022-11-11T17:12:02;14.30;99.90
34135;DHT22;20410;55.578;12.968;2022-11-11T17:14:30;14.30;99.90
34135;DHT22;20410;55.578;12.968;2022-11-11T17:16:58;14.30;99.90
34135;DHT22;20410;55.578;12.968;2022-11-11T17:19:24;14.30;99.90
34135;DHT22;20410;55.578;12.968;2022-11-11T17:21:49;14.30;99.90
34135;DHT22;20410;55.578;12.968;2022-11-11T17:24:15;14.30;99.90
34135;DHT22;20410;55.578;12.968;2022-11-11T17:26:40;14.30;99.90
34135;DHT22;20410;55.578;12.968;2022-11-11T17:29:07;14.30;99.90
34135;DHT22;20410;55.578;12.968;2022-11-11T17:31:35;14.30;99.90
34135;DHT22;20410;55.578;12.968;2022-11-11T17:34:06;14.30;99.90
34135;DHT22;20410;55.578;12.968;2022-11-11T17:36:32;14.20;99.90
34135;DHT22;20410;55.578;12.968;2022-11-11T17:38:58;14.30;99.90
34135;DHT22;20410;55.578;12.968;2022-11-11T17:41:23;14.30;99.90
34135;DHT22;20410;55.578;12.968;2022-11-11T17:43:49;14.30;99.90
34135;DHT22;20410;55.578;12.968;2022-11-11T17:46:14;14.30;99.90
34135;DHT22;20410;55.578;12.968;2022-11-11T17:48:40;14.20;99.90
34135;DHT22;20410;55.578;12.968;2022-11-11T17:51:05;14.20;99.90
34135;DHT22;20410;55.578;12.968;2022-11-11T17:53:33;14.20;99.90
34135;DHT22;20410;55.578;12.968;2022-11-11T17:55:59;14.30;99.90
34135;DHT22;20410;55.578;12.968;2022-11-11T17:58:26;14.20;99.90
34135;DHT22;20410;55.578;12.968;2022-11-11T18:00:51;14.20;99.90
34135;DHT22;20410;55.578;12.968;2022-11-11T18:03:18;14.20;99.90
34135;DHT22;20410;55.578;12.968;2022-11-11T18:05:44;14.20;99.90
34135;DHT22;20410;55.578;12.968;2022-11-11T18:08:09;14.20;99.90
34135;DHT22;20410;55.578;12.968;2022-11-11T18:10:35;14.10;99.90